sensor_id;sensor_type;location;lat;lon;timestamp;P1;durP1;ratioP1;P2;durP2;ratioP2
65096;SDS011;51686;46.758;4.356;2022-12-29T00:01:20;8.98;;;4.30;;
65096;SDS011;51686;46.758;4.356;2022-12-29T00:04:07;8.73;;;4.28;;
65096;SDS011;51686;46.758;4.356;2022-12-29T00:07:00;8.23;;;4.05;;
65096;SDS011;51686;46.758;4.356;2022-12-29T00:09:47;7.88;;;4.00;;
65096;SDS011;51686;46.758;4.356;2022-12-29T00:12:34;9.10;;;4.32;;
65096;SDS011;51686;46.758;4.356;2022-12-29T00:15:39;10.15;;;4.88;;
65096;SDS011;51686;46.758;4.356;2022-12-29T00:18:26;8.60;;;4.10;;
65096;SDS011;51686;46.758;4.356;2022-12-29T00:21:14;8.15;;;3.97;;
65096;SDS011;51686;46.758;4.356;2022-12-29T00:24:20;8.90;;;4.25;;
65096;SDS011;51686;46.758;4.356;2022-12-29T00:27:13;8.60;;;4.00;;
65096;SDS011;51686;46.758;4.356;2022-12-29T00:30:22;7.63;;;3.83;;
65096;SDS011;51686;46.758;4.356;2022-12-29T00:33:29;8.27;;;3.92;;
65096;SDS011;51686;46.758;4.356;2022-12-29T00:36:36;8.68;;;4.00;;
65096;SDS011;51686;46.758;4.356;2022-12-29T00:39:24;8.85;;;4.13;;
65096;SDS011;51686;46.758;4.356;2022-12-29T00:42:29;7.90;;;3.70;;
65096;SDS011;51686;46.758;4.356;2022-12-29T00:45:35;7.90;;;4.13;;
65096;SDS011;51686;46.758;4.356;2022-12-29T00:48:22;7.80;;;4.10;;
65096;SDS011;51686;46.758;4.356;2022-12-29T00:51:27;7.82;;;3.80;;
65096;SDS011;51686;46.758;4.356;2022-12-29T00:54:15;10.13;;;4.43;;
65096;SDS011;51686;46.758;4.356;2022-12-29T00:57:04;8.68;;;4.43;;
65096;SDS011;51686;46.758;4.356;2022-12-29T00:59:52;8.90;;;4.28;;
65096;SDS011;51686;46.758;4.356;2022-12-29T01:02:39;9.02;;;4.28;;
65096;SDS011;51686;46.758;4.356;2022-12-29T01:05:26;8.45;;;4.03;;
65096;SDS011;51686;46.758;4.356;2022-12-29T01:08:13;7.63;;;3.83;;
65096;SDS011;51686;46.758;4.356;2022-12-29T01:11:07;9.10;;;4.18;;
65096;SDS011;51686;46.758;4.356;2022-12-29T01:13:56;8.68;;;4.20;;
65096;SDS011;51686;46.758;4.356;2022-12-29T01:16:43;8.45;;;4.18;;
65096;SDS011;51686;46.758;4.356;2022-12-29T01:19:30;10.07;;;4.25;;
65096;SDS011;51686;46.758;4.356;2022-12-29T01:22:19;7.75;;;3.88;;
65096;SDS011;51686;46.758;4.356;2022-12-29T01:25:06;8.93;;;4.40;;
65096;SDS011;51686;46.758;4.356;2022-12-29T01:27:53;7.50;;;3.67;;
65096;SDS011;51686;46.758;4.356;2022-12-29T01:30:43;8.73;;;4.07;;
65096;SDS011;51686;46.758;4.356;2022-12-29T01:33:31;9.02;;;4.13;;
65096;SDS011;51686;46.758;4.356;2022-12-29T01:36:21;8.32;;;4.00;;
65096;SDS011;51686;46.758;4.356;2022-12-29T01:39:08;8.43;;;3.97;;
65096;SDS011;51686;46.758;4.356;2022-12-29T01:41:55;8.70;;;4.03;;
65096;SDS011;51686;46.758;4.356;2022-12-29T01:44:49;8.70;;;4.00;;
65096;SDS011;51686;46.758;4.356;2022-12-29T01:47:38;8.82;;;3.78;;
65096;SDS011;51686;46.758;4.356;2022-12-29T01:53:26;7.63;;;3.67;;
65096;SDS011;51686;46.758;4.356;2022-12-29T01:56:17;8.43;;;3.95;;
65096;SDS011;51686;46.758;4.356;2022-12-29T01:59:06;9.02;;;4.35;;
65096;SDS011;51686;46.758;4.356;2022-12-29T02:01:55;9.35;;;3.90;;
65096;SDS011;51686;46.758;4.356;2022-12-29T02:04:42;9.23;;;4.00;;
65096;SDS011;51686;46.758;4.356;2022-12-29T02:07:32;9.20;;;4.32;;
65096;SDS011;51686;46.758;4.356;2022-12-29T02:10:22;9.73;;;4.03;;
65096;SDS011;51686;46.758;4.356;2022-12-29T02:13:10;9.02;;;4.07;;
65096;SDS011;51686;46.758;4.356;2022-12-29T02:19:09;9.32;;;4.10;;
65096;SDS011;51686;46.758;4.356;2022-12-29T02:22:17;8.60;;;4.20;;
65096;SDS011;51686;46.758;4.356;2022-12-29T02:46:33;8.65;;;4.13;;
65096;SDS011;51686;46.758;4.356;2022-12-29T02:49:25;9.85;;;4.25;;
65096;SDS011;51686;46.758;4.356;2022-12-29T02:52:21;8.90;;;3.97;;
65096;SDS011;51686;46.758;4.356;2022-12-29T02:55:12;8.45;;;4.10;;
65096;SDS011;51686;46.758;4.356;2022-12-29T03:07:14;8.10;;;3.90;;
65096;SDS011;51686;46.758;4.356;2022-12-29T03:13:39;8.00;;;3.90;;
65096;SDS011;51686;46.758;4.356;2022-12-29T03:16:58;8.35;;;3.90;;
65096;SDS011;51686;46.758;4.356;2022-12-29T03:19:50;8.15;;;3.83;;
65096;SDS011;51686;46.758;4.356;2022-12-29T03:22:41;8.83;;;3.83;;
65096;SDS011;51686;46.758;4.356;2022-12-29T03:25:30;8.02;;;4.07;;
65096;SDS011;51686;46.758;4.356;2022-12-29T03:28:21;8.68;;;4.00;;
65096;SDS011;51686;46.758;4.356;2022-12-29T03:31:10;9.20;;;4.32;;
65096;SDS011;51686;46.758;4.356;2022-12-29T03:33:58;8.48;;;4.10;;
65096;SDS011;51686;46.758;4.356;2022-12-29T03:36:50;8.60;;;4.20;;
65096;SDS011;51686;46.758;4.356;2022-12-29T03:39:39;8.88;;;4.13;;
65096;SDS011;51686;46.758;4.356;2022-12-29T03:42:27;8.60;;;4.00;;
65096;SDS011;51686;46.758;4.356;2022-12-29T03:45:17;8.82;;;4.18;;
65096;SDS011;51686;46.758;4.356;2022-12-29T03:48:04;7.53;;;3.45;;
65096;SDS011;51686;46.758;4.356;2022-12-29T03:50:51;8.13;;;3.95;;
65096;SDS011;51686;46.758;4.356;2022-12-29T03:53:38;8.90;;;3.50;;
65096;SDS011;51686;46.758;4.356;2022-12-29T03:56:25;8.57;;;3.92;;
65096;SDS011;51686;46.758;4.356;2022-12-29T03:59:13;7.70;;;3.70;;
65096;SDS011;51686;46.758;4.356;2022-12-29T04:02:00;7.72;;;3.45;;
65096;SDS011;51686;46.758;4.356;2022-12-29T04:04:47;7.75;;;3.55;;
65096;SDS011;51686;46.758;4.356;2022-12-29T04:07:34;8.68;;;4.10;;
65096;SDS011;51686;46.758;4.356;2022-12-29T04:10:21;8.77;;;3.72;;
65096;SDS011;51686;46.758;4.356;2022-12-29T04:13:07;8.45;;;3.90;;
65096;SDS011;51686;46.758;4.356;2022-12-29T04:15:54;8.52;;;3.88;;
65096;SDS011;51686;46.758;4.356;2022-12-29T04:18:41;8.25;;;3.97;;
65096;SDS011;51686;46.758;4.356;2022-12-29T04:21:28;8.50;;;3.78;;
65096;SDS011;51686;46.758;4.356;2022-12-29T04:24:15;8.13;;;3.90;;
65096;SDS011;51686;46.758;4.356;2022-12-29T04:27:04;8.05;;;3.75;;
65096;SDS011;51686;46.758;4.356;2022-12-29T04:29:51;8.20;;;4.07;;
65096;SDS011;51686;46.758;4.356;2022-12-29T04:32:37;8.52;;;3.88;;
65096;SDS011;51686;46.758;4.356;2022-12-29T04:35:24;6.93;;;3.30;;
65096;SDS011;51686;46.758;4.356;2022-12-29T04:38:14;8.65;;;3.78;;
65096;SDS011;51686;46.758;4.356;2022-12-29T04:41:01;8.00;;;3.80;;
65096;SDS011;51686;46.758;4.356;2022-12-29T04:43:48;8.27;;;3.83;;
65096;SDS011;51686;46.758;4.356;2022-12-29T04:46:38;8.75;;;3.70;;
65096;SDS011;51686;46.758;4.356;2022-12-29T04:49:25;8.68;;;3.92;;
65096;SDS011;51686;46.758;4.356;2022-12-29T04:52:14;8.18;;;3.85;;
65096;SDS011;51686;46.758;4.356;2022-12-29T04:55:01;7.80;;;3.60;;
65096;SDS011;51686;46.758;4.356;2022-12-29T04:57:48;8.65;;;3.97;;
65096;SDS011;51686;46.758;4.356;2022-12-29T05:00:34;8.50;;;4.15;;
65096;SDS011;51686;46.758;4.356;2022-12-29T05:03:21;8.95;;;4.10;;
65096;SDS011;51686;46.758;4.356;2022-12-29T05:06:11;8.18;;;3.88;;
65096;SDS011;51686;46.758;4.356;2022-12-29T05:08:57;8.70;;;3.90;;
65096;SDS011;51686;46.758;4.356;2022-12-29T05:11:44;8.68;;;4.05;;
65096;SDS011;51686;46.758;4.356;2022-12-29T05:14:31;8.45;;;3.95;;
65096;SDS011;51686;46.758;4.356;2022-12-29T05:17:18;8.77;;;3.83;;
65096;SDS011;51686;46.758;4.356;2022-12-29T05:20:05;8.82;;;4.00;;
65096;SDS011;51686;46.758;4.356;2022-12-29T05:22:56;7.57;;;3.65;;
65096;SDS011;51686;46.758;4.356;2022-12-29T05:25:43;7.45;;;3.78;;
65096;SDS011;51686;46.758;4.356;2022-12-29T05:28:34;8.35;;;3.85;;
65096;SDS011;51686;46.758;4.356;2022-12-29T05:31:26;9.05;;;3.95;;
65096;SDS011;51686;46.758;4.356;2022-12-29T05:34:16;7.80;;;3.70;;
65096;SDS011;51686;46.758;4.356;2022-12-29T05:37:06;7.18;;;3.63;;
65096;SDS011;51686;46.758;4.356;2022-12-29T05:39:53;7.80;;;3.53;;
65096;SDS011;51686;46.758;4.356;2022-12-29T05:42:39;8.60;;;4.07;;
65096;SDS011;51686;46.758;4.356;2022-12-29T05:45:27;7.70;;;3.58;;
65096;SDS011;51686;46.758;4.356;2022-12-29T05:48:13;8.15;;;3.63;;
65096;SDS011;51686;46.758;4.356;2022-12-29T05:51:00;6.90;;;3.38;;
65096;SDS011;51686;46.758;4.356;2022-12-29T05:53:49;8.07;;;3.55;;
65096;SDS011;51686;46.758;4.356;2022-12-29T05:56:36;7.30;;;3.42;;
65096;SDS011;51686;46.758;4.356;2022-12-29T05:59:22;8.13;;;3.60;;
65096;SDS011;51686;46.758;4.356;2022-12-29T06:02:09;8.70;;;3.80;;
65096;SDS011;51686;46.758;4.356;2022-12-29T06:04:57;8.57;;;3.85;;
65096;SDS011;51686;46.758;4.356;2022-12-29T06:07:47;8.05;;;3.78;;
65096;SDS011;51686;46.758;4.356;2022-12-29T06:10:34;8.20;;;3.80;;
65096;SDS011;51686;46.758;4.356;2022-12-29T06:13:21;7.28;;;3.70;;
65096;SDS011;51686;46.758;4.356;2022-12-29T06:16:10;7.60;;;3.30;;
65096;SDS011;51686;46.758;4.356;2022-12-29T06:18:57;8.45;;;3.60;;
65096;SDS011;51686;46.758;4.356;2022-12-29T06:21:46;6.88;;;3.28;;
65096;SDS011;51686;46.758;4.356;2022-12-29T06:24:33;7.28;;;3.42;;
65096;SDS011;51686;46.758;4.356;2022-12-29T06:27:20;8.00;;;3.83;;
65096;SDS011;51686;46.758;4.356;2022-12-29T06:30:07;7.95;;;3.47;;
65096;SDS011;51686;46.758;4.356;2022-12-29T06:32:55;9.07;;;3.47;;
65096;SDS011;51686;46.758;4.356;2022-12-29T06:35:45;7.97;;;3.80;;
65096;SDS011;51686;46.758;4.356;2022-12-29T06:38:32;8.00;;;3.85;;
65096;SDS011;51686;46.758;4.356;2022-12-29T06:41:21;8.02;;;3.83;;
65096;SDS011;51686;46.758;4.356;2022-12-29T06:44:17;7.90;;;3.58;;
65096;SDS011;51686;46.758;4.356;2022-12-29T06:47:04;7.68;;;3.67;;
65096;SDS011;51686;46.758;4.356;2022-12-29T06:49:50;7.70;;;3.20;;
65096;SDS011;51686;46.758;4.356;2022-12-29T06:52:38;7.50;;;3.55;;
65096;SDS011;51686;46.758;4.356;2022-12-29T06:55:25;7.75;;;3.78;;
65096;SDS011;51686;46.758;4.356;2022-12-29T06:58:12;8.55;;;3.88;;
65096;SDS011;51686;46.758;4.356;2022-12-29T07:01:02;8.55;;;4.00;;
65096;SDS011;51686;46.758;4.356;2022-12-29T07:03:49;7.18;;;3.30;;
65096;SDS011;51686;46.758;4.356;2022-12-29T07:06:37;8.63;;;3.70;;
65096;SDS011;51686;46.758;4.356;2022-12-29T07:09:25;8.55;;;3.50;;
65096;SDS011;51686;46.758;4.356;2022-12-29T07:12:12;7.78;;;3.33;;
65096;SDS011;51686;46.758;4.356;2022-12-29T07:14:59;6.93;;;3.30;;
65096;SDS011;51686;46.758;4.356;2022-12-29T07:17:46;7.70;;;3.38;;
65096;SDS011;51686;46.758;4.356;2022-12-29T07:20:33;7.47;;;3.42;;
65096;SDS011;51686;46.758;4.356;2022-12-29T07:23:21;7.47;;;3.40;;
65096;SDS011;51686;46.758;4.356;2022-12-29T07:26:13;7.80;;;3.60;;
65096;SDS011;51686;46.758;4.356;2022-12-29T07:29:00;7.50;;;3.40;;
65096;SDS011;51686;46.758;4.356;2022-12-29T07:31:50;7.53;;;3.30;;
65096;SDS011;51686;46.758;4.356;2022-12-29T07:34:37;8.55;;;3.80;;
65096;SDS011;51686;46.758;4.356;2022-12-29T07:37:26;6.73;;;3.00;;
65096;SDS011;51686;46.758;4.356;2022-12-29T07:40:13;7.68;;;3.20;;
65096;SDS011;51686;46.758;4.356;2022-12-29T07:43:00;8.38;;;3.25;;
65096;SDS011;51686;46.758;4.356;2022-12-29T07:45:47;8.00;;;3.63;;
65096;SDS011;51686;46.758;4.356;2022-12-29T07:48:34;7.72;;;3.63;;
65096;SDS011;51686;46.758;4.356;2022-12-29T07:51:27;7.97;;;3.50;;
65096;SDS011;51686;46.758;4.356;2022-12-29T07:55:09;7.22;;;3.30;;
65096;SDS011;51686;46.758;4.356;2022-12-29T07:58:13;7.82;;;3.58;;
65096;SDS011;51686;46.758;4.356;2022-12-29T08:00:59;7.60;;;3.40;;
65096;SDS011;51686;46.758;4.356;2022-12-29T08:03:46;7.13;;;3.00;;
65096;SDS011;51686;46.758;4.356;2022-12-29T08:06:40;7.30;;;3.30;;
65096;SDS011;51686;46.758;4.356;2022-12-29T08:09:27;6.57;;;3.10;;
65096;SDS011;51686;46.758;4.356;2022-12-29T08:12:14;6.63;;;3.00;;
65096;SDS011;51686;46.758;4.356;2022-12-29T08:17:51;7.55;;;3.33;;
65096;SDS011;51686;46.758;4.356;2022-12-29T08:20:37;6.75;;;3.17;;
65096;SDS011;51686;46.758;4.356;2022-12-29T08:23:27;7.15;;;3.35;;
65096;SDS011;51686;46.758;4.356;2022-12-29T08:26:20;7.68;;;3.35;;
65096;SDS011;51686;46.758;4.356;2022-12-29T08:29:11;7.72;;;3.30;;
65096;SDS011;51686;46.758;4.356;2022-12-29T08:32:01;7.57;;;3.17;;
65096;SDS011;51686;46.758;4.356;2022-12-29T08:34:49;7.35;;;3.33;;
65096;SDS011;51686;46.758;4.356;2022-12-29T08:37:36;7.75;;;3.40;;
65096;SDS011;51686;46.758;4.356;2022-12-29T08:40:22;7.65;;;3.35;;
65096;SDS011;51686;46.758;4.356;2022-12-29T08:43:11;7.05;;;3.40;;
65096;SDS011;51686;46.758;4.356;2022-12-29T08:46:02;8.05;;;4.05;;
65096;SDS011;51686;46.758;4.356;2022-12-29T08:48:49;7.05;;;3.47;;
65096;SDS011;51686;46.758;4.356;2022-12-29T08:51:36;8.18;;;3.75;;
65096;SDS011;51686;46.758;4.356;2022-12-29T08:54:23;7.47;;;3.55;;
65096;SDS011;51686;46.758;4.356;2022-12-29T08:57:10;7.75;;;3.42;;
65096;SDS011;51686;46.758;4.356;2022-12-29T08:59:57;8.40;;;3.38;;
65096;SDS011;51686;46.758;4.356;2022-12-29T09:02:46;7.40;;;3.17;;
65096;SDS011;51686;46.758;4.356;2022-12-29T09:05:40;7.05;;;3.33;;
65096;SDS011;51686;46.758;4.356;2022-12-29T09:08:30;8.00;;;3.40;;
65096;SDS011;51686;46.758;4.356;2022-12-29T09:11:20;7.15;;;3.05;;
65096;SDS011;51686;46.758;4.356;2022-12-29T09:14:12;9.40;;;3.22;;
65096;SDS011;51686;46.758;4.356;2022-12-29T09:17:08;7.25;;;3.20;;
65096;SDS011;51686;46.758;4.356;2022-12-29T09:20:15;8.15;;;3.88;;
65096;SDS011;51686;46.758;4.356;2022-12-29T09:23:04;6.53;;;2.97;;
65096;SDS011;51686;46.758;4.356;2022-12-29T09:25:53;7.50;;;3.20;;
65096;SDS011;51686;46.758;4.356;2022-12-29T09:28:41;7.13;;;3.17;;
65096;SDS011;51686;46.758;4.356;2022-12-29T09:31:28;8.20;;;3.38;;
65096;SDS011;51686;46.758;4.356;2022-12-29T09:34:18;7.63;;;3.45;;
65096;SDS011;51686;46.758;4.356;2022-12-29T09:37:05;7.25;;;3.15;;
65096;SDS011;51686;46.758;4.356;2022-12-29T09:39:52;7.78;;;3.35;;
65096;SDS011;51686;46.758;4.356;2022-12-29T09:42:45;9.02;;;3.75;;
65096;SDS011;51686;46.758;4.356;2022-12-29T09:45:43;7.18;;;3.30;;
65096;SDS011;51686;46.758;4.356;2022-12-29T09:48:33;7.07;;;3.20;;
65096;SDS011;51686;46.758;4.356;2022-12-29T09:51:24;8.10;;;3.25;;
65096;SDS011;51686;46.758;4.356;2022-12-29T09:54:23;8.07;;;3.85;;
65096;SDS011;51686;46.758;4.356;2022-12-29T09:58:00;8.20;;;3.47;;
65096;SDS011;51686;46.758;4.356;2022-12-29T10:00:36;8.50;;;4.05;;
65096;SDS011;51686;46.758;4.356;2022-12-29T10:16:04;7.13;;;3.30;;
65096;SDS011;51686;46.758;4.356;2022-12-29T10:19:09;7.68;;;3.65;;
65096;SDS011;51686;46.758;4.356;2022-12-29T10:22:13;8.40;;;3.42;;
65096;SDS011;51686;46.758;4.356;2022-12-29T10:25:11;7.45;;;3.50;;
65096;SDS011;51686;46.758;4.356;2022-12-29T10:28:05;9.07;;;3.80;;
65096;SDS011;51686;46.758;4.356;2022-12-29T10:30:59;7.57;;;3.90;;
65096;SDS011;51686;46.758;4.356;2022-12-29T10:33:58;8.38;;;3.60;;
65096;SDS011;51686;46.758;4.356;2022-12-29T10:36:47;8.80;;;3.65;;
65096;SDS011;51686;46.758;4.356;2022-12-29T10:39:53;7.50;;;3.50;;
65096;SDS011;51686;46.758;4.356;2022-12-29T10:42:43;7.30;;;3.53;;
65096;SDS011;51686;46.758;4.356;2022-12-29T10:45:32;8.15;;;3.72;;
65096;SDS011;51686;46.758;4.356;2022-12-29T10:48:21;7.80;;;3.67;;
65096;SDS011;51686;46.758;4.356;2022-12-29T10:51:39;7.93;;;3.70;;
65096;SDS011;51686;46.758;4.356;2022-12-29T10:57:43;8.18;;;3.72;;
65096;SDS011;51686;46.758;4.356;2022-12-29T11:00:31;7.80;;;3.60;;
65096;SDS011;51686;46.758;4.356;2022-12-29T11:03:39;7.90;;;3.60;;
65096;SDS011;51686;46.758;4.356;2022-12-29T11:06:31;9.88;;;3.83;;
65096;SDS011;51686;46.758;4.356;2022-12-29T11:09:28;7.47;;;3.42;;
65096;SDS011;51686;46.758;4.356;2022-12-29T11:12:29;8.10;;;3.88;;
65096;SDS011;51686;46.758;4.356;2022-12-29T11:15:17;8.48;;;3.85;;
65096;SDS011;51686;46.758;4.356;2022-12-29T11:18:04;8.10;;;3.92;;
65096;SDS011;51686;46.758;4.356;2022-12-29T11:21:01;8.27;;;3.85;;
65096;SDS011;51686;46.758;4.356;2022-12-29T11:23:56;8.57;;;4.03;;
65096;SDS011;51686;46.758;4.356;2022-12-29T11:26:48;8.10;;;4.15;;
65096;SDS011;51686;46.758;4.356;2022-12-29T11:29:40;8.93;;;4.07;;
65096;SDS011;51686;46.758;4.356;2022-12-29T11:32:31;7.65;;;3.53;;
65096;SDS011;51686;46.758;4.356;2022-12-29T11:35:31;8.80;;;3.78;;
65096;SDS011;51686;46.758;4.356;2022-12-29T11:38:31;7.07;;;3.53;;
65096;SDS011;51686;46.758;4.356;2022-12-29T11:41:25;8.13;;;3.88;;
65096;SDS011;51686;46.758;4.356;2022-12-29T11:44:15;7.57;;;3.60;;
65096;SDS011;51686;46.758;4.356;2022-12-29T11:47:03;8.40;;;3.83;;
65096;SDS011;51686;46.758;4.356;2022-12-29T11:49:51;8.23;;;3.75;;
65096;SDS011;51686;46.758;4.356;2022-12-29T11:52:39;8.48;;;3.95;;
65096;SDS011;51686;46.758;4.356;2022-12-29T11:55:27;8.70;;;3.90;;
65096;SDS011;51686;46.758;4.356;2022-12-29T11:58:14;8.65;;;4.10;;
65096;SDS011;51686;46.758;4.356;2022-12-29T12:08:31;8.98;;;3.88;;
65096;SDS011;51686;46.758;4.356;2022-12-29T12:11:32;8.85;;;3.90;;
65096;SDS011;51686;46.758;4.356;2022-12-29T12:14:34;9.38;;;4.15;;
65096;SDS011;51686;46.758;4.356;2022-12-29T12:23:56;11.00;;;4.90;;
65096;SDS011;51686;46.758;4.356;2022-12-29T12:29:57;13.18;;;5.50;;
65096;SDS011;51686;46.758;4.356;2022-12-29T12:32:56;11.85;;;5.28;;
65096;SDS011;51686;46.758;4.356;2022-12-29T12:45:24;10.40;;;5.97;;
65096;SDS011;51686;46.758;4.356;2022-12-29T12:48:30;13.13;;;5.97;;
65096;SDS011;51686;46.758;4.356;2022-12-29T12:58:22;11.02;;;5.55;;
65096;SDS011;51686;46.758;4.356;2022-12-29T13:11:20;9.07;;;4.45;;
65096;SDS011;51686;46.758;4.356;2022-12-29T13:14:20;9.32;;;4.68;;
65096;SDS011;51686;46.758;4.356;2022-12-29T13:17:22;8.95;;;4.05;;
65096;SDS011;51686;46.758;4.356;2022-12-29T13:23:45;9.13;;;3.95;;
65096;SDS011;51686;46.758;4.356;2022-12-29T13:27:06;8.82;;;4.18;;
65096;SDS011;51686;46.758;4.356;2022-12-29T13:39:19;8.23;;;3.83;;
65096;SDS011;51686;46.758;4.356;2022-12-29T13:42:16;8.77;;;3.88;;
65096;SDS011;51686;46.758;4.356;2022-12-29T13:48:02;10.30;;;4.37;;
65096;SDS011;51686;46.758;4.356;2022-12-29T13:51:04;9.95;;;4.75;;
65096;SDS011;51686;46.758;4.356;2022-12-29T14:00:37;9.60;;;5.00;;
65096;SDS011;51686;46.758;4.356;2022-12-29T14:03:52;10.52;;;5.47;;
65096;SDS011;51686;46.758;4.356;2022-12-29T14:06:41;10.70;;;5.32;;
65096;SDS011;51686;46.758;4.356;2022-12-29T14:09:46;11.98;;;5.93;;
65096;SDS011;51686;46.758;4.356;2022-12-29T14:12:38;11.20;;;6.40;;
65096;SDS011;51686;46.758;4.356;2022-12-29T14:15:53;14.00;;;7.65;;
65096;SDS011;51686;46.758;4.356;2022-12-29T14:18:52;14.77;;;7.82;;
65096;SDS011;51686;46.758;4.356;2022-12-29T14:21:57;13.65;;;7.80;;
65096;SDS011;51686;46.758;4.356;2022-12-29T14:24:50;13.50;;;7.53;;
65096;SDS011;51686;46.758;4.356;2022-12-29T14:31:33;12.85;;;7.15;;
65096;SDS011;51686;46.758;4.356;2022-12-29T14:37:25;11.45;;;6.30;;
65096;SDS011;51686;46.758;4.356;2022-12-29T14:40:22;12.40;;;6.75;;
65096;SDS011;51686;46.758;4.356;2022-12-29T14:43:29;13.73;;;6.40;;
65096;SDS011;51686;46.758;4.356;2022-12-29T14:46:25;11.68;;;5.68;;
65096;SDS011;51686;46.758;4.356;2022-12-29T14:49:29;10.73;;;5.60;;
65096;SDS011;51686;46.758;4.356;2022-12-29T14:52:45;11.82;;;6.00;;
65096;SDS011;51686;46.758;4.356;2022-12-29T14:55:55;11.50;;;5.50;;
65096;SDS011;51686;46.758;4.356;2022-12-29T14:58:48;10.60;;;5.57;;
65096;SDS011;51686;46.758;4.356;2022-12-29T15:01:47;11.30;;;5.90;;
65096;SDS011;51686;46.758;4.356;2022-12-29T15:04:44;12.25;;;5.95;;
65096;SDS011;51686;46.758;4.356;2022-12-29T15:07:40;10.98;;;5.53;;
65096;SDS011;51686;46.758;4.356;2022-12-29T15:10:54;11.10;;;5.88;;
65096;SDS011;51686;46.758;4.356;2022-12-29T15:13:49;10.30;;;4.65;;
65096;SDS011;51686;46.758;4.356;2022-12-29T15:16:46;8.95;;;4.40;;
65096;SDS011;51686;46.758;4.356;2022-12-29T15:19:50;9.50;;;4.53;;
65096;SDS011;51686;46.758;4.356;2022-12-29T15:22:53;9.43;;;4.00;;
65096;SDS011;51686;46.758;4.356;2022-12-29T15:26:05;9.90;;;3.75;;
65096;SDS011;51686;46.758;4.356;2022-12-29T15:29:26;8.43;;;3.38;;
65096;SDS011;51686;46.758;4.356;2022-12-29T15:32:40;7.43;;;3.38;;
65096;SDS011;51686;46.758;4.356;2022-12-29T15:35:41;8.30;;;3.20;;
65096;SDS011;51686;46.758;4.356;2022-12-29T15:38:38;7.50;;;3.10;;
65096;SDS011;51686;46.758;4.356;2022-12-29T15:41:32;6.95;;;2.72;;
65096;SDS011;51686;46.758;4.356;2022-12-29T15:48:48;8.30;;;2.88;;
65096;SDS011;51686;46.758;4.356;2022-12-29T15:51:40;5.65;;;2.33;;
65096;SDS011;51686;46.758;4.356;2022-12-29T15:54:29;5.67;;;2.33;;
65096;SDS011;51686;46.758;4.356;2022-12-29T15:57:21;7.57;;;2.58;;
65096;SDS011;51686;46.758;4.356;2022-12-29T16:00:49;6.75;;;2.83;;
65096;SDS011;51686;46.758;4.356;2022-12-29T16:03:39;6.97;;;2.42;;
65096;SDS011;51686;46.758;4.356;2022-12-29T16:09:19;7.53;;;2.55;;
65096;SDS011;51686;46.758;4.356;2022-12-29T16:12:24;5.30;;;2.30;;
65096;SDS011;51686;46.758;4.356;2022-12-29T16:15:15;5.80;;;2.50;;
65096;SDS011;51686;46.758;4.356;2022-12-29T16:18:12;6.53;;;2.50;;
65096;SDS011;51686;46.758;4.356;2022-12-29T16:21:16;5.57;;;2.40;;
65096;SDS011;51686;46.758;4.356;2022-12-29T16:24:08;8.05;;;2.40;;
65096;SDS011;51686;46.758;4.356;2022-12-29T16:27:07;6.97;;;2.65;;
65096;SDS011;51686;46.758;4.356;2022-12-29T16:29:56;7.13;;;2.72;;
65096;SDS011;51686;46.758;4.356;2022-12-29T16:32:47;5.50;;;2.20;;
65096;SDS011;51686;46.758;4.356;2022-12-29T16:35:38;5.22;;;2.22;;
65096;SDS011;51686;46.758;4.356;2022-12-29T16:38:33;6.53;;;2.30;;
65096;SDS011;51686;46.758;4.356;2022-12-29T16:41:30;5.65;;;2.40;;
65096;SDS011;51686;46.758;4.356;2022-12-29T16:44:21;5.55;;;2.30;;
65096;SDS011;51686;46.758;4.356;2022-12-29T16:50:08;6.40;;;2.67;;
65096;SDS011;51686;46.758;4.356;2022-12-29T16:53:01;6.10;;;2.40;;
65096;SDS011;51686;46.758;4.356;2022-12-29T16:55:50;6.32;;;2.47;;
65096;SDS011;51686;46.758;4.356;2022-12-29T16:58:38;6.03;;;2.53;;
65096;SDS011;51686;46.758;4.356;2022-12-29T17:01:25;5.30;;;2.20;;
65096;SDS011;51686;46.758;4.356;2022-12-29T17:04:12;6.03;;;2.17;;
65096;SDS011;51686;46.758;4.356;2022-12-29T17:07:00;6.07;;;2.25;;
65096;SDS011;51686;46.758;4.356;2022-12-29T17:09:48;4.50;;;2.13;;
65096;SDS011;51686;46.758;4.356;2022-12-29T17:12:36;6.77;;;2.50;;
65096;SDS011;51686;46.758;4.356;2022-12-29T17:15:25;6.32;;;2.22;;
65096;SDS011;51686;46.758;4.356;2022-12-29T17:18:21;5.53;;;2.40;;
65096;SDS011;51686;46.758;4.356;2022-12-29T17:21:11;6.07;;;2.28;;
65096;SDS011;51686;46.758;4.356;2022-12-29T17:23:59;4.90;;;2.00;;
65096;SDS011;51686;46.758;4.356;2022-12-29T17:26:48;5.60;;;2.20;;
65096;SDS011;51686;46.758;4.356;2022-12-29T17:29:39;5.53;;;2.45;;
65096;SDS011;51686;46.758;4.356;2022-12-29T17:32:28;5.38;;;2.42;;
65096;SDS011;51686;46.758;4.356;2022-12-29T17:35:18;5.70;;;2.13;;
65096;SDS011;51686;46.758;4.356;2022-12-29T17:38:28;5.40;;;2.15;;
65096;SDS011;51686;46.758;4.356;2022-12-29T17:41:35;6.05;;;2.40;;
65096;SDS011;51686;46.758;4.356;2022-12-29T17:44:39;6.55;;;2.28;;
65096;SDS011;51686;46.758;4.356;2022-12-29T17:47:26;5.13;;;2.15;;
65096;SDS011;51686;46.758;4.356;2022-12-29T17:50:25;6.35;;;2.40;;
65096;SDS011;51686;46.758;4.356;2022-12-29T17:53:23;6.00;;;2.25;;
65096;SDS011;51686;46.758;4.356;2022-12-29T17:56:12;5.07;;;2.10;;
65096;SDS011;51686;46.758;4.356;2022-12-29T17:58:59;6.32;;;2.20;;
65096;SDS011;51686;46.758;4.356;2022-12-29T18:01:46;6.65;;;2.30;;
65096;SDS011;51686;46.758;4.356;2022-12-29T18:04:39;6.10;;;2.40;;
65096;SDS011;51686;46.758;4.356;2022-12-29T18:07:46;5.60;;;2.20;;
65096;SDS011;51686;46.758;4.356;2022-12-29T18:22:44;4.95;;;2.20;;
65096;SDS011;51686;46.758;4.356;2022-12-29T18:29:47;5.88;;;2.20;;
65096;SDS011;51686;46.758;4.356;2022-12-29T18:32:56;5.35;;;2.20;;
65096;SDS011;51686;46.758;4.356;2022-12-29T18:43:53;6.07;;;2.33;;
65096;SDS011;51686;46.758;4.356;2022-12-29T18:55:42;6.30;;;2.40;;
65096;SDS011;51686;46.758;4.356;2022-12-29T19:02:40;6.53;;;2.63;;
65096;SDS011;51686;46.758;4.356;2022-12-29T19:08:56;5.95;;;2.45;;
65096;SDS011;51686;46.758;4.356;2022-12-29T19:21:01;7.32;;;2.90;;
65096;SDS011;51686;46.758;4.356;2022-12-29T19:24:24;7.05;;;2.80;;
65096;SDS011;51686;46.758;4.356;2022-12-29T19:27:55;6.93;;;2.70;;
65096;SDS011;51686;46.758;4.356;2022-12-29T19:31:29;7.22;;;2.70;;
65096;SDS011;51686;46.758;4.356;2022-12-29T19:46:50;5.95;;;2.63;;
65096;SDS011;51686;46.758;4.356;2022-12-29T20:02:35;5.07;;;2.20;;
65096;SDS011;51686;46.758;4.356;2022-12-29T20:13:11;6.18;;;2.30;;
65096;SDS011;51686;46.758;4.356;2022-12-29T20:16:42;5.57;;;2.30;;
65096;SDS011;51686;46.758;4.356;2022-12-29T20:42:01;4.40;;;2.00;;
65096;SDS011;51686;46.758;4.356;2022-12-29T20:45:45;4.78;;;1.90;;
65096;SDS011;51686;46.758;4.356;2022-12-29T20:53:35;4.15;;;1.75;;
65096;SDS011;51686;46.758;4.356;2022-12-29T21:02:02;4.57;;;1.67;;
65096;SDS011;51686;46.758;4.356;2022-12-29T21:06:09;4.10;;;1.70;;
65096;SDS011;51686;46.758;4.356;2022-12-29T21:14:05;5.38;;;2.00;;
65096;SDS011;51686;46.758;4.356;2022-12-29T22:26:27;4.97;;;1.80;;
65096;SDS011;51686;46.758;4.356;2022-12-29T22:38:36;3.67;;;1.70;;
65096;SDS011;51686;46.758;4.356;2022-12-29T22:42:14;4.65;;;1.80;;
65096;SDS011;51686;46.758;4.356;2022-12-29T22:50:03;4.20;;;1.70;;
65096;SDS011;51686;46.758;4.356;2022-12-29T22:58:17;2.33;;;1.55;;
65096;SDS011;51686;46.758;4.356;2022-12-29T23:02:21;3.00;;;1.60;;
65096;SDS011;51686;46.758;4.356;2022-12-29T23:05:35;3.97;;;1.90;;
65096;SDS011;51686;46.758;4.356;2022-12-29T23:09:32;5.60;;;1.60;;
65096;SDS011;51686;46.758;4.356;2022-12-29T23:17:01;3.33;;;1.40;;
65096;SDS011;51686;46.758;4.356;2022-12-29T23:20:31;2.58;;;1.40;;
65096;SDS011;51686;46.758;4.356;2022-12-29T23:23:38;3.25;;;1.50;;